createdAt,value
2018-05-08T03:01:05.764Z,9.25
2018-05-08T03:02:05.769Z,9.21
2018-05-08T03:03:06.175Z,9.19
2018-05-08T03:04:05.981Z,9.18
2018-05-08T03:05:06.108Z,9.18
2018-05-08T03:06:06.331Z,9.04
2018-05-08T03:07:06.536Z,9.04
2018-05-08T03:08:06.706Z,8.97
2018-05-08T03:09:06.875Z,9.04
2018-05-08T03:10:07.053Z,8.94
2018-05-08T03:11:07.188Z,9.03
2018-05-08T03:12:07.318Z,9.00
2018-05-08T03:13:07.541Z,8.97
2018-05-08T03:14:07.672Z,8.92
2018-05-08T03:15:07.882Z,8.95
2018-05-08T03:16:07.997Z,8.85
2018-05-08T03:17:08.155Z,8.84
2018-05-08T03:18:08.373Z,8.89
2018-05-08T03:19:08.520Z,8.79
2018-05-08T03:20:08.683Z,8.92
2018-05-08T03:21:08.848Z,8.89
2018-05-08T03:22:09.043Z,8.82
2018-05-08T03:23:09.155Z,8.87
2018-05-08T03:24:09.378Z,8.79
2018-05-08T03:25:09.522Z,8.87
2018-05-08T03:26:09.706Z,8.85
2018-05-08T03:27:09.800Z,8.87
2018-05-08T03:28:10.032Z,8.89
2018-05-08T03:29:10.190Z,8.92
2018-05-08T03:30:10.333Z,8.94
2018-05-08T03:31:10.495Z,8.82
2018-05-08T03:32:10.667Z,8.78
2018-05-08T03:33:10.807Z,8.82
2018-05-08T03:34:10.994Z,8.82
2018-05-08T03:35:11.102Z,8.81
2018-05-08T03:36:11.277Z,8.88
2018-05-08T03:37:11.496Z,8.88
2018-05-08T03:38:11.604Z,8.88
2018-05-08T03:39:11.801Z,8.89
2018-05-08T03:40:11.940Z,8.84
2018-05-08T03:41:12.077Z,8.85
2018-05-08T03:42:12.249Z,8.87
2018-05-08T03:43:12.407Z,8.95
2018-05-08T03:44:12.583Z,8.92
2018-05-08T03:45:12.743Z,8.85
2018-05-08T03:46:12.903Z,8.81
2018-05-08T03:47:13.110Z,8.82
2018-05-08T03:48:13.151Z,8.99
2018-05-08T03:49:13.390Z,8.89
2018-05-08T03:50:13.537Z,8.78
2018-05-08T03:51:13.682Z,8.76
2018-05-08T03:52:13.870Z,8.71
2018-05-08T03:53:14.032Z,8.79
2018-05-08T03:54:14.207Z,8.81
2018-05-08T03:55:14.321Z,8.79
2018-05-08T03:56:14.516Z,8.79
2018-05-08T03:57:14.707Z,8.81
2018-05-08T03:58:14.827Z,8.87
2018-05-08T03:59:14.983Z,8.87
2018-05-08T04:00:15.408Z,8.81
2018-05-08T04:01:15.314Z,8.89
2018-05-08T04:02:15.447Z,8.91
2018-05-08T04:03:15.597Z,8.92
2018-05-08T04:04:15.748Z,8.99
2018-05-08T04:05:15.962Z,8.94
2018-05-08T04:06:16.095Z,9.02
2018-05-08T04:07:16.226Z,9.08
2018-05-08T04:08:16.356Z,8.97
2018-05-08T04:09:16.623Z,9.13
2018-05-08T04:10:16.759Z,9.00
2018-05-08T04:11:16.978Z,9.06
2018-05-08T04:12:17.115Z,9.03
2018-05-08T04:13:17.278Z,8.95
2018-05-08T04:14:17.491Z,8.85
2018-05-08T04:15:17.654Z,9.00
2018-05-08T04:16:17.845Z,8.91
2018-05-08T04:17:17.966Z,8.88
2018-05-08T04:18:18.099Z,8.82
2018-05-08T04:19:18.278Z,8.87
2018-05-08T04:20:18.460Z,8.87
2018-05-08T04:21:18.592Z,8.79
2018-05-08T04:22:18.745Z,8.78
2018-05-08T04:23:18.952Z,8.81
2018-05-08T04:24:19.087Z,8.73
2018-05-08T04:25:19.293Z,8.79
2018-05-08T04:26:19.483Z,8.81
2018-05-08T04:27:19.582Z,8.87
2018-05-08T04:28:19.757Z,8.89
2018-05-08T04:29:19.993Z,8.92
2018-05-08T04:30:20.099Z,8.84
2018-05-08T04:31:20.221Z,8.85
2018-05-08T04:32:20.374Z,8.85
2018-05-08T04:33:20.523Z,9.03
2018-05-08T04:34:20.701Z,9.14
2018-05-08T04:35:20.900Z,9.08
2018-05-08T04:36:20.975Z,9.14
2018-05-08T04:37:21.252Z,9.18
2018-05-08T04:38:21.336Z,9.34
2018-05-08T04:39:21.500Z,9.34
2018-05-08T04:40:21.762Z,9.41
2018-05-08T04:41:21.864Z,9.47
2018-05-08T04:42:22.070Z,9.50
2018-05-08T04:43:22.183Z,9.48
2018-05-08T04:44:22.337Z,9.56
2018-05-08T04:45:22.513Z,9.56
2018-05-08T04:46:22.671Z,9.51
2018-05-08T04:47:22.883Z,9.65
2018-05-08T04:48:22.957Z,9.72
2018-05-08T04:49:23.157Z,9.69
2018-05-08T04:50:23.320Z,9.69
2018-05-08T04:51:23.436Z,9.74
2018-05-08T04:52:23.692Z,9.73
2018-05-08T04:53:23.847Z,9.73
2018-05-08T04:54:23.987Z,9.77
2018-05-08T04:55:24.154Z,9.79
2018-05-08T04:56:24.349Z,9.77
2018-05-08T04:57:24.434Z,9.76
2018-05-08T04:58:24.641Z,9.82
2018-05-08T04:59:24.797Z,9.83
2018-05-08T05:00:24.924Z,9.77
2018-05-08T05:01:25.110Z,9.80
2018-05-08T05:02:25.301Z,9.80
2018-05-08T05:03:25.536Z,9.79
2018-05-08T05:04:25.721Z,9.79
2018-05-08T05:05:25.771Z,9.87
2018-05-08T05:06:25.970Z,9.86
2018-05-08T05:07:26.142Z,9.84
2018-05-08T05:08:26.272Z,9.92
2018-05-08T05:09:26.449Z,9.94
2018-05-08T05:10:26.641Z,9.95
2018-05-08T05:11:26.821Z,9.94
2018-05-08T05:12:26.954Z,10.02
2018-05-08T05:13:27.099Z,10.05
2018-05-08T05:14:27.304Z,10.16
2018-05-08T05:15:27.457Z,10.15
2018-05-08T05:16:27.650Z,10.10
2018-05-08T05:17:27.743Z,10.20
2018-05-08T05:18:27.953Z,10.16
2018-05-08T05:19:28.093Z,10.22
2018-05-08T05:20:28.223Z,10.28
2018-05-08T05:21:28.371Z,10.37
2018-05-08T05:22:28.536Z,10.48
2018-05-08T05:23:28.737Z,10.51
2018-05-08T05:24:28.923Z,10.51
2018-05-08T05:25:29.057Z,10.68
2018-05-08T05:26:29.267Z,10.71
2018-05-08T05:27:29.398Z,10.78
2018-05-08T05:28:29.514Z,10.78
2018-05-08T05:29:29.771Z,10.79
2018-05-08T05:30:29.874Z,10.86
2018-05-08T05:31:30.120Z,10.90
2018-05-08T05:32:30.210Z,10.90
2018-05-08T05:33:30.389Z,10.93
2018-05-08T05:34:30.529Z,10.97
2018-05-08T05:35:30.641Z,11.07
2018-05-08T05:36:30.879Z,11.12
2018-05-08T05:37:31.051Z,11.30
2018-05-08T05:38:31.118Z,11.35
2018-05-08T05:39:31.328Z,11.36
2018-05-08T05:40:31.467Z,11.44
2018-05-08T05:41:31.657Z,11.50
2018-05-08T05:42:31.845Z,11.55
2018-05-08T05:43:31.938Z,11.50
2018-05-08T05:44:32.136Z,11.69
2018-05-08T05:45:32.265Z,11.69
2018-05-08T05:46:32.547Z,11.83
2018-05-08T05:47:32.641Z,11.84
2018-05-08T05:48:32.793Z,11.95
2018-05-08T05:49:32.938Z,11.97
2018-05-08T05:50:33.098Z,12.03
2018-05-08T05:51:33.350Z,12.18
2018-05-08T05:52:33.449Z,12.27
2018-05-08T05:53:33.675Z,12.39
2018-05-08T05:54:33.858Z,12.36
2018-05-08T05:55:34.038Z,12.46
2018-05-08T05:56:34.153Z,12.55
2018-05-08T05:57:34.304Z,12.60
2018-05-08T05:58:34.488Z,12.62
2018-05-08T05:59:34.619Z,12.76
2018-05-08T06:00:34.828Z,12.90
2018-05-08T06:01:35.065Z,12.85
2018-05-08T06:02:35.156Z,12.95
2018-05-08T06:03:35.335Z,13.05
2018-05-08T06:04:35.530Z,13.13
2018-05-08T06:05:35.670Z,13.13
2018-05-08T06:06:35.870Z,13.28
2018-05-08T06:07:36.066Z,13.41
2018-05-08T06:08:36.119Z,13.59
2018-05-08T06:09:36.322Z,13.63
2018-05-08T06:10:36.519Z,13.70
2018-05-08T06:11:36.655Z,13.83
2018-05-08T06:12:36.827Z,13.85
2018-05-08T06:13:36.981Z,13.83
2018-05-08T06:14:37.144Z,13.93
2018-05-08T06:15:37.318Z,13.99
2018-05-08T06:16:37.459Z,14.14
2018-05-08T06:17:37.635Z,14.20
2018-05-08T06:18:37.797Z,14.32
2018-05-08T06:19:37.928Z,14.30
2018-05-08T06:20:38.110Z,14.43
2018-05-08T06:21:38.245Z,14.54
2018-05-08T06:22:38.455Z,14.65
2018-05-08T06:23:38.563Z,14.78
2018-05-08T06:24:38.750Z,14.70
2018-05-08T06:25:38.918Z,14.86
2018-05-08T06:26:39.256Z,15.06
2018-05-08T06:27:39.228Z,15.10
2018-05-08T06:28:39.351Z,15.09
2018-05-08T06:29:39.548Z,15.29
2018-05-08T06:30:39.727Z,15.33
2018-05-08T06:31:39.994Z,15.57
2018-05-08T06:32:40.144Z,15.57
2018-05-08T06:33:40.167Z,15.67
2018-05-08T06:34:40.348Z,15.76
2018-05-08T06:35:40.580Z,15.88
2018-05-08T06:36:40.688Z,15.98
2018-05-08T06:37:40.837Z,16.08
2018-05-08T06:38:41.064Z,16.09
2018-05-08T06:39:41.199Z,16.20
2018-05-08T06:40:41.329Z,16.35
2018-05-08T06:41:41.585Z,16.42
2018-05-08T06:42:41.738Z,16.54
2018-05-08T06:43:41.890Z,16.57
2018-05-08T06:44:42.032Z,16.71
2018-05-08T06:45:42.174Z,16.87
2018-05-08T06:46:42.448Z,16.79
2018-05-08T06:47:42.593Z,16.93
2018-05-08T06:48:42.742Z,17.01
2018-05-08T06:49:42.907Z,17.14
2018-05-08T06:50:43.062Z,17.15
2018-05-08T06:51:43.229Z,17.27
2018-05-08T06:52:43.395Z,17.48
2018-05-08T06:53:43.604Z,17.57
2018-05-08T06:54:43.722Z,17.70
2018-05-08T06:55:43.962Z,17.72
2018-05-08T06:56:44.021Z,17.85
2018-05-08T06:57:44.213Z,17.87
2018-05-08T06:58:44.435Z,18.08
2018-05-08T06:59:44.497Z,18.05
2018-05-08T07:00:44.769Z,18.08
2018-05-08T07:01:44.838Z,18.23
2018-05-08T07:02:45.010Z,18.40
2018-05-08T07:03:45.208Z,18.45
2018-05-08T07:04:45.372Z,18.41
2018-05-08T07:05:45.487Z,18.53
2018-05-08T07:06:45.644Z,18.62
2018-05-08T07:07:45.845Z,18.70
2018-05-08T07:08:45.989Z,18.65
2018-05-08T07:09:46.109Z,18.62
2018-05-08T07:10:46.317Z,18.58
2018-05-08T07:11:46.452Z,18.66
2018-05-08T07:12:46.657Z,18.80
2018-05-08T07:13:46.885Z,18.90
2018-05-08T07:14:46.999Z,18.96
2018-05-08T07:15:47.245Z,19.12
2018-05-08T07:16:47.369Z,19.24
2018-05-08T07:17:47.546Z,19.40
2018-05-08T07:18:47.627Z,19.45
2018-05-08T07:19:47.811Z,19.56
2018-05-08T07:20:47.983Z,19.59
2018-05-08T07:21:48.128Z,19.55
2018-05-08T07:22:48.350Z,19.58
2018-05-08T07:23:48.462Z,19.79
2018-05-08T07:24:48.609Z,19.77
2018-05-08T07:25:48.791Z,19.88
2018-05-08T07:26:49.005Z,19.96
2018-05-08T07:27:49.121Z,19.94
2018-05-08T07:28:49.242Z,19.94
2018-05-08T07:29:49.361Z,20.10
2018-05-08T07:30:49.648Z,20.16
2018-05-08T07:31:49.732Z,20.18
2018-05-08T07:32:49.964Z,20.28
2018-05-08T07:33:50.024Z,20.34
2018-05-08T07:34:50.261Z,20.43
2018-05-08T07:35:50.383Z,20.51
2018-05-08T07:36:50.584Z,20.62
2018-05-08T07:37:50.760Z,20.70
2018-05-08T07:38:50.927Z,20.84
2018-05-08T07:39:51.116Z,20.78
2018-05-08T07:40:51.193Z,20.92
2018-05-08T07:41:51.448Z,20.93
2018-05-08T07:42:51.608Z,20.88
2018-05-08T07:43:51.764Z,20.80
2018-05-08T07:44:51.919Z,20.85
2018-05-08T07:45:52.047Z,20.99
2018-05-08T07:46:52.276Z,21.03
2018-05-08T07:47:52.398Z,21.17
2018-05-08T07:48:52.550Z,21.21
2018-05-08T07:49:52.742Z,21.32
2018-05-08T07:50:52.870Z,21.52
2018-05-08T07:51:53.046Z,21.61
2018-05-08T07:52:53.215Z,21.98
2018-05-08T07:53:53.339Z,22.11
2018-05-08T07:54:53.493Z,22.55
2018-05-08T07:55:53.793Z,22.60
2018-05-08T07:56:53.885Z,23.10
2018-05-08T07:57:54.047Z,23.39
2018-05-08T07:58:54.249Z,23.76
2018-05-08T07:59:55.075Z,23.96
2018-05-08T08:00:54.598Z,24.39
2018-05-08T08:01:54.760Z,24.84
2018-05-08T08:02:54.996Z,24.68
2018-05-08T08:03:55.038Z,24.89
2018-05-08T08:04:55.296Z,25.31
2018-05-08T08:05:55.412Z,25.51
2018-05-08T08:06:55.574Z,25.66
2018-05-08T08:07:55.815Z,25.72
2018-05-08T08:08:55.882Z,26.05
2018-05-08T08:09:56.088Z,26.21
2018-05-08T08:10:56.207Z,26.25
2018-05-08T08:11:56.394Z,26.23
2018-05-08T08:12:56.560Z,26.65
2018-05-08T08:13:56.810Z,26.75
2018-05-08T08:14:56.910Z,27.11
2018-05-08T08:15:57.059Z,27.11
2018-05-08T08:16:57.295Z,27.26
2018-05-08T08:17:57.366Z,27.37
2018-05-08T08:18:57.580Z,27.48
2018-05-08T08:19:57.765Z,27.59
2018-05-08T08:20:57.900Z,27.54
2018-05-08T08:21:58.081Z,27.25
2018-05-08T08:22:58.255Z,27.51
2018-05-08T08:23:58.403Z,27.58
2018-05-08T08:24:58.584Z,27.68
2018-05-08T08:25:58.763Z,28.08
2018-05-08T08:26:58.912Z,28.44
2018-05-08T08:27:59.062Z,28.42
2018-05-08T08:28:59.239Z,28.63
2018-05-08T08:29:59.499Z,28.59
2018-05-08T08:30:59.625Z,28.54
2018-05-08T08:31:59.787Z,28.69
2018-05-08T08:32:59.869Z,28.69
2018-05-08T08:34:00.225Z,29.16
2018-05-08T08:35:00.220Z,29.31
2018-05-08T08:36:00.518Z,29.35
2018-05-08T08:37:00.668Z,29.54
2018-05-08T08:38:00.749Z,29.39
2018-05-08T08:39:00.985Z,29.36
2018-05-08T08:40:01.200Z,29.32
2018-05-08T08:41:01.303Z,29.39
2018-05-08T08:42:01.565Z,29.42
2018-05-08T08:43:01.702Z,29.36
2018-05-08T08:44:01.788Z,29.57
2018-05-08T08:45:02.032Z,29.61
2018-05-08T08:46:02.233Z,29.90
2018-05-08T08:47:02.350Z,29.61
2018-05-08T08:48:02.473Z,29.78
2018-05-08T08:49:02.751Z,29.69
2018-05-08T08:50:02.867Z,29.42
2018-05-08T08:51:03.074Z,29.24
2018-05-08T08:52:03.184Z,28.75
2018-05-08T08:53:03.356Z,28.56
2018-05-08T08:54:03.622Z,28.20
2018-05-08T08:55:03.679Z,28.04
2018-05-08T08:56:03.864Z,27.65
2018-05-08T08:57:04.035Z,27.37
2018-05-08T08:58:04.213Z,27.21
2018-05-08T08:59:04.363Z,27.10
2018-05-08T09:00:04.527Z,26.83
2018-05-08T09:01:04.805Z,26.47
2018-05-08T09:02:04.899Z,26.10
2018-05-08T09:03:05.078Z,25.84
2018-05-08T09:04:05.421Z,25.80
2018-05-08T09:05:05.424Z,25.70
2018-05-08T09:06:05.602Z,25.59
2018-05-08T09:07:05.798Z,25.50
2018-05-08T09:08:05.952Z,25.43
2018-05-08T09:09:06.098Z,25.51
2018-05-08T09:10:06.298Z,25.53
2018-05-08T09:11:06.375Z,25.53
2018-05-08T09:12:06.624Z,25.58
2018-05-08T09:13:06.731Z,25.28
2018-05-08T09:14:07.009Z,25.07
2018-05-08T09:15:07.155Z,25.23
2018-05-08T09:16:07.258Z,25.23
2018-05-08T09:17:07.499Z,25.17
2018-05-08T09:18:07.676Z,25.17
2018-05-08T09:19:07.825Z,25.13
2018-05-08T09:20:07.901Z,25.10
2018-05-08T09:21:08.235Z,25.07
2018-05-08T09:22:08.400Z,25.31
2018-05-08T09:23:08.492Z,25.53
2018-05-08T09:24:08.702Z,25.54
2018-05-08T09:25:08.853Z,25.65
2018-05-08T09:26:09.001Z,25.98
2018-05-08T09:27:09.094Z,26.07
2018-05-08T09:28:09.350Z,26.43
2018-05-08T09:29:09.482Z,26.78
2018-05-08T09:30:09.614Z,27.07
2018-05-08T09:31:09.825Z,27.54
2018-05-08T09:32:10.009Z,27.71
2018-05-08T09:33:10.124Z,27.59
2018-05-08T09:34:10.304Z,28.04
2018-05-08T09:35:10.429Z,28.27
2018-05-08T09:36:10.644Z,28.33
2018-05-08T09:37:10.865Z,28.54
2018-05-08T09:38:10.958Z,28.14
2018-05-08T09:39:11.184Z,28.25
2018-05-08T09:40:11.285Z,28.67
2018-05-08T09:41:11.453Z,29.12
2018-05-08T09:42:11.627Z,29.16
2018-05-08T09:43:11.863Z,29.41
2018-05-08T09:44:11.993Z,29.69
2018-05-08T09:45:12.153Z,29.87
2018-05-08T09:46:12.341Z,30.25
2018-05-08T09:47:12.499Z,30.44
2018-05-08T09:48:12.637Z,30.43
2018-05-08T09:49:12.875Z,30.75
2018-05-08T09:50:13.018Z,31.06
2018-05-08T09:51:13.143Z,31.12
2018-05-08T09:52:13.307Z,31.39
2018-05-08T09:53:13.515Z,31.44
2018-05-08T09:54:13.682Z,31.70
2018-05-08T09:55:13.854Z,31.96
2018-05-08T09:56:14.063Z,32.03
2018-05-08T09:57:14.166Z,32.15
2018-05-08T09:58:14.416Z,32.19
2018-05-08T09:59:14.532Z,32.31
2018-05-08T10:00:14.744Z,32.37
2018-05-08T10:01:14.945Z,32.53
2018-05-08T10:02:15.062Z,32.60
2018-05-08T10:03:15.300Z,32.55
2018-05-08T10:04:15.438Z,32.87
2018-05-08T10:05:15.572Z,32.60
2018-05-08T10:06:15.772Z,31.85
2018-05-08T10:07:15.983Z,31.74
2018-05-08T10:08:16.145Z,31.64
2018-05-08T10:09:16.237Z,31.46
2018-05-08T10:10:16.469Z,31.55
2018-05-08T10:11:16.614Z,31.62
2018-05-08T10:12:16.838Z,31.52
2018-05-08T10:13:16.981Z,31.89
2018-05-08T10:14:17.150Z,32.00
2018-05-08T10:15:17.310Z,32.12
2018-05-08T10:16:17.520Z,32.14
2018-05-08T10:17:17.718Z,32.21
2018-05-08T10:18:17.858Z,31.80
2018-05-08T10:19:18.048Z,31.51
2018-05-08T10:20:18.235Z,31.90
2018-05-08T10:21:18.378Z,31.70
2018-05-08T10:22:18.526Z,31.52
2018-05-08T10:23:18.733Z,31.69
2018-05-08T10:24:18.936Z,31.55
2018-05-08T10:25:19.062Z,31.69
2018-05-08T10:26:19.273Z,32.12
2018-05-08T10:27:19.397Z,31.69
2018-05-08T10:28:19.533Z,32.14
2018-05-08T10:29:19.708Z,32.40
2018-05-08T10:30:19.929Z,32.48
2018-05-08T10:31:20.111Z,32.53
2018-05-08T10:32:20.258Z,32.12
2018-05-08T10:33:20.442Z,32.43
2018-05-08T10:34:20.534Z,32.59
2018-05-08T10:35:20.792Z,32.58
2018-05-08T10:36:20.945Z,32.74
2018-05-08T10:37:21.062Z,32.90
2018-05-08T10:38:21.305Z,32.49
2018-05-08T10:39:21.536Z,32.51
2018-05-08T10:40:21.641Z,32.19
2018-05-08T10:41:21.849Z,32.40
2018-05-08T10:42:21.949Z,32.60
2018-05-08T10:43:22.178Z,32.65
2018-05-08T10:44:22.370Z,33.02
2018-05-08T10:45:22.566Z,33.05
2018-05-08T10:46:22.624Z,33.15
2018-05-08T10:47:22.939Z,33.50
2018-05-08T10:48:23.046Z,33.39
2018-05-08T10:49:23.207Z,33.65
2018-05-08T10:50:23.352Z,33.89
2018-05-08T10:51:23.495Z,34.08
2018-05-08T10:52:23.755Z,33.47
2018-05-08T10:53:23.917Z,33.43
2018-05-08T10:54:24.055Z,33.59
2018-05-08T10:55:24.226Z,33.45
2018-05-08T10:56:24.436Z,33.47
2018-05-08T10:57:24.619Z,33.49
2018-05-08T10:58:24.820Z,33.49
2018-05-08T10:59:24.903Z,32.82
2018-05-08T11:00:25.163Z,32.64
2018-05-08T11:01:25.260Z,32.68
2018-05-08T11:02:25.469Z,32.48
2018-05-08T11:03:25.623Z,32.65
2018-05-08T11:04:25.814Z,32.78
2018-05-08T11:05:26.006Z,33.00
2018-05-08T11:06:26.199Z,33.32
2018-05-08T11:07:26.342Z,33.42
2018-05-08T11:08:26.482Z,33.24
2018-05-08T11:09:26.691Z,33.58
2018-05-08T11:10:26.864Z,33.74
2018-05-08T11:11:27.012Z,33.67
2018-05-08T11:12:27.273Z,33.59
2018-05-08T11:13:27.295Z,33.84
2018-05-08T11:14:27.496Z,33.65
2018-05-08T11:15:27.741Z,33.99
2018-05-08T11:16:27.849Z,33.96
2018-05-08T11:17:28.058Z,34.14
2018-05-08T11:18:28.258Z,34.21
2018-05-08T11:19:28.339Z,34.52
2018-05-08T11:20:28.573Z,34.45
2018-05-08T11:21:28.783Z,34.60
2018-05-08T11:22:28.900Z,34.62
2018-05-08T11:23:29.095Z,34.55
2018-05-08T11:24:29.295Z,34.52
2018-05-08T11:25:29.504Z,34.78
2018-05-08T11:26:29.707Z,34.47
2018-05-08T11:27:29.858Z,34.05
2018-05-08T11:28:30.078Z,34.05
2018-05-08T11:29:30.179Z,34.21
2018-05-08T11:30:30.418Z,34.06
2018-05-08T11:31:30.550Z,33.58
2018-05-08T11:32:30.695Z,33.50
2018-05-08T11:33:30.924Z,33.94
2018-05-08T11:34:31.077Z,33.99
2018-05-08T11:35:31.237Z,34.18
2018-05-08T11:36:31.385Z,34.21
2018-05-08T11:37:31.688Z,34.05
2018-05-08T11:38:31.770Z,34.29
2018-05-08T11:39:31.993Z,34.10
2018-05-08T11:40:32.129Z,34.18
2018-05-08T11:41:32.298Z,34.52
2018-05-08T11:42:32.511Z,34.70
2018-05-08T11:43:32.633Z,34.62
2018-05-08T11:44:32.800Z,34.77
2018-05-08T11:45:33.042Z,35.11
2018-05-08T11:46:33.135Z,34.85
2018-05-08T11:47:33.390Z,34.39
2018-05-08T11:48:33.505Z,34.58
2018-05-08T11:49:33.703Z,35.11
2018-05-08T11:50:33.891Z,34.93
2018-05-08T11:51:34.083Z,34.25
2018-05-08T11:52:34.241Z,34.36
2018-05-08T11:53:34.437Z,34.55
2018-05-08T11:54:34.571Z,34.81
2018-05-08T11:55:34.769Z,34.99
2018-05-08T11:56:34.931Z,35.08
2018-05-08T11:57:35.124Z,35.02
2018-05-08T11:58:35.286Z,34.85
2018-05-08T11:59:35.468Z,34.42
2018-05-08T12:00:35.604Z,34.50
2018-05-08T12:01:35.868Z,34.62
2018-05-08T12:02:36.160Z,34.85
2018-05-08T12:03:36.259Z,34.73
2018-05-08T12:04:36.442Z,34.50
2018-05-08T12:05:36.612Z,34.02
2018-05-08T12:06:36.767Z,34.47
2018-05-08T12:07:36.993Z,34.93
2018-05-08T12:08:37.085Z,35.05
2018-05-08T12:09:37.330Z,35.14
2018-05-08T12:10:37.508Z,35.00
2018-05-08T12:11:37.707Z,35.27
2018-05-08T12:12:37.847Z,34.99
2018-05-08T12:13:38.011Z,35.26
2018-05-08T12:14:38.274Z,35.27
2018-05-08T12:15:38.395Z,34.96
2018-05-08T12:16:38.587Z,34.66
2018-05-08T12:17:38.766Z,34.40
2018-05-08T12:18:38.965Z,34.62
2018-05-08T12:19:39.082Z,34.70
2018-05-08T12:20:39.301Z,34.73
2018-05-08T12:21:39.529Z,35.22
2018-05-08T12:22:39.701Z,35.27
2018-05-08T12:23:39.866Z,35.37
2018-05-08T12:24:40.003Z,35.61
2018-05-08T12:25:40.201Z,35.80
2018-05-08T12:26:40.356Z,36.09
2018-05-08T12:27:40.563Z,36.01
2018-05-08T12:28:40.740Z,35.70
2018-05-08T12:29:40.837Z,35.83
2018-05-08T12:30:41.149Z,35.71
2018-05-08T12:31:41.273Z,35.05
2018-05-08T12:32:41.418Z,35.33
2018-05-08T12:33:41.592Z,35.00
2018-05-08T12:34:41.765Z,35.31
2018-05-08T12:35:41.975Z,34.96
2018-05-08T12:36:42.161Z,34.89
2018-05-08T12:37:42.333Z,35.07
2018-05-08T12:38:42.494Z,34.89
2018-05-08T12:39:42.733Z,35.07
2018-05-08T12:40:42.939Z,35.30
2018-05-08T12:41:43.151Z,35.71
2018-05-08T12:42:43.264Z,35.60
2018-05-08T12:43:43.545Z,36.04
2018-05-08T12:44:43.698Z,35.74
2018-05-08T12:45:43.907Z,35.79
2018-05-08T12:46:44.052Z,36.23
2018-05-08T12:47:44.242Z,36.31
2018-05-08T12:48:44.419Z,36.08
2018-05-08T12:49:44.653Z,36.30
2018-05-08T12:50:44.812Z,36.40
2018-05-08T12:51:44.976Z,36.42
2018-05-08T12:52:45.165Z,36.33
2018-05-08T12:53:45.255Z,36.52
2018-05-08T12:54:45.444Z,35.97
2018-05-08T12:55:45.668Z,36.12
2018-05-08T12:56:45.905Z,36.18
2018-05-08T12:57:46.004Z,36.31
2018-05-08T12:58:46.169Z,36.07
2018-05-08T12:59:46.375Z,36.23
2018-05-08T13:00:46.530Z,36.42
2018-05-08T13:01:46.695Z,36.31
2018-05-08T13:02:46.877Z,36.14
2018-05-08T13:03:47.110Z,36.16
2018-05-08T13:04:47.285Z,35.95
2018-05-08T13:05:47.427Z,35.68
2018-05-08T13:06:47.627Z,35.74
2018-05-08T13:07:47.781Z,35.60
2018-05-08T13:08:47.960Z,36.18
2018-05-08T13:09:48.061Z,36.24
2018-05-08T13:10:48.349Z,36.47
2018-05-08T13:11:48.464Z,36.61
2018-05-08T13:12:48.660Z,36.58
2018-05-08T13:13:48.856Z,36.36
2018-05-08T13:14:49.021Z,36.46
2018-05-08T13:15:49.233Z,36.59
2018-05-08T13:16:49.358Z,35.88
2018-05-08T13:17:49.547Z,36.08
2018-05-08T13:18:49.765Z,36.09
2018-05-08T13:19:49.913Z,36.21
2018-05-08T13:20:50.160Z,36.08
2018-05-08T13:21:50.291Z,36.16
2018-05-08T13:22:50.403Z,36.27
2018-05-08T13:23:50.623Z,36.46
2018-05-08T13:24:50.813Z,36.23
2018-05-08T13:25:50.974Z,36.17
2018-05-08T13:26:51.179Z,35.78
2018-05-08T13:27:51.323Z,35.95
2018-05-08T13:28:51.477Z,36.64
2018-05-08T13:29:51.715Z,36.76
2018-05-08T13:30:51.808Z,36.80
2018-05-08T13:31:52.078Z,36.91
2018-05-08T13:32:52.232Z,36.92
2018-05-08T13:33:52.407Z,36.91
2018-05-08T13:34:52.627Z,36.65
2018-05-08T13:35:52.749Z,36.40
2018-05-08T13:36:52.979Z,36.58
2018-05-08T13:37:53.110Z,36.54
2018-05-08T13:38:53.289Z,36.42
2018-05-08T13:39:53.605Z,36.24
2018-05-08T13:40:54.296Z,36.43
2018-05-08T13:41:53.924Z,36.67
2018-05-08T13:42:53.977Z,36.58
2018-05-08T13:43:54.176Z,36.45
2018-05-08T13:44:54.307Z,36.43
2018-05-08T13:45:54.573Z,36.49
2018-05-08T13:46:54.728Z,36.61
2018-05-08T13:47:54.917Z,36.54
2018-05-08T13:48:55.080Z,36.54
2018-05-08T13:49:55.249Z,36.30
2018-05-08T13:50:55.381Z,35.61
2018-05-08T13:51:55.625Z,36.01
2018-05-08T13:52:55.763Z,36.65
2018-05-08T13:53:55.924Z,37.03
2018-05-08T13:54:56.117Z,36.81
2018-05-08T13:55:56.276Z,36.96
2018-05-08T13:56:56.444Z,37.03
2018-05-08T13:57:56.671Z,37.03
2018-05-08T13:58:56.825Z,36.27
2018-05-08T13:59:57.008Z,36.37
2018-05-08T14:00:57.229Z,36.31
2018-05-08T14:01:57.437Z,36.35
2018-05-08T14:02:57.609Z,36.33
2018-05-08T14:03:57.780Z,36.31
2018-05-08T14:04:57.905Z,36.47
2018-05-08T14:05:58.072Z,36.64
2018-05-08T14:06:58.330Z,36.65
2018-05-08T14:07:58.403Z,36.64
2018-05-08T14:08:58.643Z,36.76
2018-05-08T14:09:58.770Z,36.67
2018-05-08T14:10:59.002Z,36.79
2018-05-08T14:11:59.241Z,36.59
2018-05-08T14:12:59.397Z,36.77
2018-05-08T14:13:59.526Z,36.37
2018-05-08T14:14:59.675Z,36.51
2018-05-08T14:15:59.831Z,36.59
2018-05-08T14:17:00.064Z,36.49
2018-05-08T14:18:00.241Z,36.64
2018-05-08T14:19:00.482Z,36.02
2018-05-08T14:20:00.623Z,36.23
2018-05-08T14:21:00.778Z,36.24
2018-05-08T14:22:00.917Z,36.28
2018-05-08T14:23:01.185Z,35.95
2018-05-08T14:24:01.329Z,36.00
2018-05-08T14:25:01.482Z,35.97
2018-05-08T14:26:01.650Z,36.05
2018-05-08T14:27:01.856Z,35.97
2018-05-08T14:28:02.015Z,35.78
2018-05-08T14:29:02.281Z,35.58
2018-05-08T14:30:02.491Z,35.64
2018-05-08T14:31:02.688Z,35.64
2018-05-08T14:32:02.755Z,35.76
2018-05-08T14:33:02.918Z,35.88
2018-05-08T14:34:03.160Z,35.68
2018-05-08T14:35:03.328Z,35.33
2018-05-08T14:36:03.525Z,35.76
2018-05-08T14:37:03.737Z,35.92
2018-05-08T14:38:03.843Z,35.80
2018-05-08T14:39:04.064Z,35.82
2018-05-08T14:40:04.220Z,35.29
2018-05-08T14:41:04.379Z,35.22
2018-05-08T14:42:04.597Z,34.42
2018-05-08T14:43:04.745Z,34.29
2018-05-08T14:44:04.911Z,34.47
2018-05-08T14:45:05.093Z,34.61
2018-05-08T14:46:05.319Z,35.18
2018-05-08T14:47:05.420Z,35.41
2018-05-08T14:48:05.626Z,35.37
2018-05-08T14:49:05.844Z,34.96
2018-05-08T14:50:06.056Z,35.31
2018-05-08T14:51:06.164Z,35.27
2018-05-08T14:52:06.413Z,35.00
2018-05-08T14:53:06.580Z,34.70
2018-05-08T14:54:06.701Z,34.47
2018-05-08T14:55:06.901Z,34.50
2018-05-08T14:56:07.092Z,34.20
2018-05-08T14:57:07.174Z,34.73
2018-05-08T14:58:07.401Z,35.07
2018-05-08T14:59:07.613Z,34.96
2018-05-08T15:00:07.746Z,35.24
2018-05-08T15:01:07.896Z,35.30
2018-05-08T15:02:08.145Z,35.33
2018-05-08T15:03:08.343Z,34.88
2018-05-08T15:04:08.484Z,35.51
2018-05-08T15:05:08.695Z,35.68
2018-05-08T15:06:08.848Z,35.45
2018-05-08T15:07:08.925Z,35.48
2018-05-08T15:08:09.154Z,35.24
2018-05-08T15:09:09.301Z,35.00
2018-05-08T15:10:09.462Z,35.07
2018-05-08T15:11:09.729Z,35.15
2018-05-08T15:12:09.852Z,35.08
2018-05-08T15:13:10.091Z,35.02
2018-05-08T15:14:10.205Z,35.22
2018-05-08T15:15:10.383Z,35.24
2018-05-08T15:16:10.615Z,34.95
2018-05-08T15:17:10.897Z,34.71
2018-05-08T15:18:10.960Z,34.75
2018-05-08T15:19:11.206Z,34.35
2018-05-08T15:20:11.378Z,34.40
2018-05-08T15:21:11.568Z,34.70
2018-05-08T15:22:11.743Z,34.40
2018-05-08T15:23:11.970Z,34.33
2018-05-08T15:24:12.096Z,34.30
2018-05-08T15:25:12.232Z,34.48
2018-05-08T15:26:12.414Z,34.29
2018-05-08T15:27:12.636Z,34.25
2018-05-08T15:28:12.826Z,33.95
2018-05-08T15:29:13.094Z,33.95
2018-05-08T15:30:13.198Z,33.55
2018-05-08T15:31:13.269Z,33.46
2018-05-08T15:32:13.473Z,33.42
2018-05-08T15:33:13.681Z,33.12
2018-05-08T15:34:13.826Z,33.30
2018-05-08T15:35:14.038Z,33.34
2018-05-08T15:36:14.176Z,33.22
2018-05-08T15:37:14.382Z,33.01
2018-05-08T15:38:14.563Z,32.89
2018-05-08T15:39:14.745Z,33.02
2018-05-08T15:40:14.865Z,32.83
2018-05-08T15:41:15.057Z,33.07
2018-05-08T15:42:15.212Z,33.19
2018-05-08T15:43:15.378Z,33.47
2018-05-08T15:44:15.670Z,33.71
2018-05-08T15:45:15.735Z,33.64
2018-05-08T15:46:15.903Z,33.59
2018-05-08T15:47:16.043Z,33.59
2018-05-08T15:48:16.304Z,33.50
2018-05-08T15:49:16.361Z,33.34
2018-05-08T15:50:16.572Z,33.20
2018-05-08T15:51:16.763Z,33.01
2018-05-08T15:52:16.949Z,32.96
2018-05-08T15:53:17.093Z,32.89
2018-05-08T15:54:17.307Z,32.78
2018-05-08T15:55:17.601Z,32.93
2018-05-08T15:56:17.706Z,33.01
2018-05-08T15:57:17.887Z,33.05
2018-05-08T15:58:18.100Z,33.09
2018-05-08T15:59:18.244Z,33.17